createdAt,value
2018-06-16T00:03:48.876Z,99735.06
2018-06-16T00:07:52.574Z,99734.77
2018-06-16T00:11:55.958Z,99739.44
2018-06-16T00:15:59.397Z,99738.70
2018-06-16T00:20:02.844Z,99739.62
2018-06-16T00:24:06.261Z,99733.13
2018-06-16T00:28:09.698Z,99729.63
2018-06-16T00:32:13.090Z,99739.14
2018-06-16T00:36:16.553Z,99727.21
2018-06-16T00:40:19.984Z,99729.09
2018-06-16T00:44:23.396Z,99734.94
2018-06-16T00:48:26.820Z,99733.75
2018-06-16T00:52:30.258Z,99739.55
2018-06-16T00:56:33.662Z,99741.89
2018-06-16T01:00:37.121Z,99735.27
2018-06-16T01:04:40.544Z,99734.52
2018-06-16T01:08:43.982Z,99727.41
2018-06-16T01:12:47.429Z,99726.07
2018-06-16T01:16:50.880Z,99715.90
2018-06-16T01:20:54.383Z,99711.95
2018-06-16T01:24:57.820Z,99708.08
2018-06-16T01:29:01.276Z,99699.81
2018-06-16T01:33:04.668Z,99708.91
2018-06-16T01:37:08.107Z,99706.88
2018-06-16T01:41:11.549Z,99704.90
2018-06-16T01:45:14.970Z,99706.34
2018-06-16T01:49:18.365Z,99704.37
2018-06-16T01:53:21.873Z,99693.40
2018-06-16T01:57:25.290Z,99697.11
2018-06-16T02:01:28.717Z,99690.64
2018-06-16T02:05:32.150Z,99696.57
2018-06-16T02:09:35.570Z,99699.30
2018-06-16T02:13:39.031Z,99699.30
2018-06-16T02:17:42.469Z,99703.84
2018-06-16T02:21:45.896Z,99699.02
2018-06-16T02:25:49.339Z,99698.16
2018-06-16T02:29:52.743Z,99705.34
2018-06-16T02:33:56.658Z,99705.42
2018-06-16T02:38:00.150Z,99705.86
2018-06-16T02:42:03.543Z,99700.58
2018-06-16T02:46:07.001Z,99692.22
2018-06-16T02:50:10.549Z,99704.88
2018-06-16T02:54:13.915Z,99709.52
2018-06-16T02:58:17.375Z,99721.18
2018-06-16T03:02:20.801Z,99715.22
2018-06-16T03:06:24.241Z,99717.52
2018-06-16T03:10:27.704Z,99719.37
2018-06-16T03:14:31.134Z,99715.95
2018-06-16T03:18:34.557Z,99719.59
2018-06-16T03:22:37.978Z,99726.79
2018-06-16T03:26:41.404Z,99726.41
2018-06-16T03:30:44.843Z,99723.88
2018-06-16T03:34:48.280Z,99721.78
2018-06-16T03:38:51.719Z,99727.59
2018-06-16T03:42:55.128Z,99732.05
2018-06-16T03:46:58.567Z,99724.03
2018-06-16T03:51:02.017Z,99729.33
2018-06-16T03:55:05.459Z,99733.75
2018-06-16T03:59:09.735Z,99730.61
2018-06-16T04:03:13.186Z,99735.43
2018-06-16T04:07:16.630Z,99736.38
2018-06-16T04:11:20.080Z,99739.95
2018-06-16T04:15:23.517Z,99741.14
2018-06-16T04:19:26.991Z,99746.77
2018-06-16T04:23:30.407Z,99751.07
2018-06-16T04:27:33.795Z,99745.57
2018-06-16T04:31:37.225Z,99740.98
2018-06-16T04:35:40.674Z,99738.16
2018-06-16T04:39:44.213Z,99737.00
2018-06-16T04:43:47.657Z,99737.66
2018-06-16T04:47:51.086Z,99731.58
2018-06-16T04:51:54.514Z,99728.06
2018-06-16T04:55:57.947Z,99733.87
2018-06-16T05:00:01.389Z,99734.69
2018-06-16T05:04:04.798Z,99728.43
2018-06-16T05:08:08.246Z,99720.66
2018-06-16T05:12:11.651Z,99725.40
2018-06-16T05:16:15.120Z,99734.02
2018-06-16T05:20:18.592Z,99731.55
2018-06-16T05:24:22.018Z,99725.98
2018-06-16T05:28:25.461Z,99731.09
2018-06-16T05:32:28.859Z,99735.44
2018-06-16T05:36:32.330Z,99730.56
2018-06-16T05:40:35.780Z,99736.78
2018-06-16T05:44:39.240Z,99728.35
2018-06-16T05:48:42.716Z,99734.64
2018-06-16T05:52:46.155Z,99737.13
2018-06-16T05:56:49.648Z,99733.33
2018-06-16T06:00:53.090Z,99742.52
2018-06-16T06:04:56.583Z,99735.64
2018-06-16T06:09:00.028Z,99741.01
2018-06-16T06:13:03.547Z,99736.98
2018-06-16T06:17:07.015Z,99739.16
2018-06-16T06:21:10.449Z,99749.78
2018-06-16T06:25:13.912Z,99747.98
2018-06-16T06:29:17.364Z,99752.84
2018-06-16T06:33:20.833Z,99748.52
2018-06-16T06:37:24.247Z,99749.10
2018-06-16T06:41:27.676Z,99746.08
2018-06-16T06:45:31.198Z,99749.73
2018-06-16T06:49:34.655Z,99749.14
2018-06-16T06:53:38.050Z,99750.09
2018-06-16T06:57:41.486Z,99749.08
2018-06-16T07:01:44.923Z,99746.44
2018-06-16T07:05:48.331Z,99750.27
2018-06-16T07:09:51.826Z,99751.13
2018-06-16T07:13:55.214Z,99745.12
2018-06-16T07:17:58.652Z,99742.87
2018-06-16T07:22:02.105Z,99726.73
2018-06-16T07:26:05.618Z,99736.68
2018-06-16T07:30:09.044Z,99733.33
2018-06-16T07:34:12.555Z,99725.16
2018-06-16T07:38:15.980Z,99719.38
2018-06-16T07:42:19.448Z,99705.07
2018-06-16T07:46:22.879Z,99705.17
2018-06-16T07:50:26.340Z,99705.16
2018-06-16T07:54:29.849Z,99704.39
2018-06-16T07:58:33.352Z,99698.63
2018-06-16T08:02:36.911Z,99689.27
2018-06-16T08:06:40.318Z,99690.45
2018-06-16T08:10:43.800Z,99686.80
2018-06-16T08:14:47.378Z,99693.38
2018-06-16T08:18:50.784Z,99686.90
2018-06-16T08:22:54.235Z,99682.00
2018-06-16T08:26:57.670Z,99687.58
2018-06-16T08:31:01.091Z,99681.50
2018-06-16T08:35:04.566Z,99674.20
2018-06-16T08:39:09.839Z,99673.78
2018-06-16T08:43:13.438Z,99671.09
2018-06-16T08:47:17.268Z,99663.85
2018-06-16T08:51:20.672Z,99656.79
2018-06-16T08:55:24.191Z,99669.48
2018-06-16T08:59:27.599Z,99662.73
2018-06-16T09:03:31.014Z,99670.64
2018-06-16T09:07:34.457Z,99658.45
2018-06-16T09:11:44.583Z,99649.69
2018-06-16T09:15:48.005Z,99650.27
2018-06-16T09:19:51.459Z,99649.08
2018-06-16T09:23:54.884Z,99648.98
2018-06-16T09:27:58.348Z,99639.38
2018-06-16T09:32:01.786Z,99645.92
2018-06-16T09:36:05.212Z,99646.78
2018-06-16T09:40:08.638Z,99647.22
2018-06-16T09:44:12.065Z,99637.97
2018-06-16T09:48:15.525Z,99650.69
2018-06-16T09:52:18.942Z,99642.14
2018-06-16T09:56:22.495Z,99637.19
2018-06-16T10:00:31.221Z,99641.11
2018-06-16T10:04:34.670Z,99645.61
2018-06-16T10:08:38.406Z,99645.64
2018-06-16T10:12:41.849Z,99638.72
2018-06-16T10:16:45.271Z,99635.80
2018-06-16T10:20:48.707Z,99626.80
2018-06-16T10:24:52.216Z,99624.33
2018-06-16T10:28:55.666Z,99623.02
2018-06-16T10:32:59.165Z,99611.51
2018-06-16T10:37:02.650Z,99622.23
2018-06-16T10:41:06.207Z,99617.36
2018-06-16T10:45:09.634Z,99626.86
2018-06-16T10:49:13.066Z,99622.02
2018-06-16T10:53:16.551Z,99622.78
2018-06-16T10:57:19.943Z,99621.63
2018-06-16T11:01:23.488Z,99618.56
2018-06-16T11:05:26.900Z,99616.05
2018-06-16T11:09:30.319Z,99615.66
2018-06-16T11:13:33.754Z,99610.56
2018-06-16T11:17:37.233Z,99606.55
2018-06-16T11:21:40.681Z,99609.09
2018-06-16T11:25:44.132Z,99603.89
2018-06-16T11:29:47.590Z,99597.09
2018-06-16T11:33:51.043Z,99599.91
2018-06-16T11:37:54.493Z,99595.73
2018-06-16T11:41:57.909Z,99589.55
2018-06-16T11:46:01.325Z,99594.88
2018-06-16T11:50:04.780Z,99603.03
2018-06-16T11:54:08.180Z,99599.92
2018-06-16T11:58:11.854Z,99602.84
2018-06-16T12:02:15.290Z,99604.25
2018-06-16T12:06:18.700Z,99603.37
2018-06-16T12:10:22.204Z,99605.73
2018-06-16T12:14:25.649Z,99609.44
2018-06-16T12:18:29.106Z,99606.33
2018-06-16T12:22:32.547Z,99602.78
2018-06-16T12:26:36.013Z,99601.17
2018-06-16T12:30:40.406Z,99595.22
2018-06-16T12:34:43.837Z,99598.22
2018-06-16T12:38:47.278Z,99598.92
2018-06-16T12:42:50.849Z,99596.71
2018-06-16T12:46:54.259Z,99595.36
2018-06-16T12:50:57.747Z,99595.56
2018-06-16T12:55:01.133Z,99597.01
2018-06-16T12:59:04.626Z,99603.11
2018-06-16T13:03:08.091Z,99598.86
2018-06-16T13:07:11.497Z,99599.78
2018-06-16T13:11:15.026Z,99595.44
2018-06-16T13:15:18.651Z,99607.69
2018-06-16T13:19:22.114Z,99606.07
2018-06-16T13:23:25.552Z,99599.41
2018-06-16T13:27:28.985Z,99600.27
2018-06-16T13:31:32.392Z,99608.02
2018-06-16T13:35:35.896Z,99603.77
2018-06-16T13:39:39.332Z,99603.10
2018-06-16T13:43:42.730Z,99592.13
2018-06-16T13:47:46.166Z,99595.30
2018-06-16T13:51:49.606Z,99592.50
2018-06-16T13:55:53.052Z,99589.23
2018-06-16T13:59:56.487Z,99587.39
2018-06-16T14:03:59.923Z,99585.05
2018-06-16T14:08:03.342Z,99583.15
2018-06-16T14:12:06.814Z,99588.71
2018-06-16T14:16:10.242Z,99581.56
2018-06-16T14:20:13.629Z,99585.26
2018-06-16T14:24:17.053Z,99580.61
2018-06-16T14:28:20.525Z,99583.80
2018-06-16T14:32:23.945Z,99586.61
2018-06-16T14:36:27.385Z,99582.16
2018-06-16T14:40:30.814Z,99586.31
2018-06-16T14:44:34.245Z,99576.30
2018-06-16T14:48:37.667Z,99573.70
2018-06-16T14:52:41.097Z,99572.58
2018-06-16T14:56:44.537Z,99572.97
2018-06-16T15:00:47.993Z,99572.17
2018-06-16T15:04:51.455Z,99568.71
2018-06-16T15:08:55.021Z,99573.22
2018-06-16T15:12:58.464Z,99572.00
2018-06-16T15:17:01.917Z,99566.60
2018-06-16T15:21:05.431Z,99560.05
2018-06-16T15:25:08.865Z,99561.09
2018-06-16T15:29:12.280Z,99559.19
2018-06-16T15:33:15.714Z,99565.45
2018-06-16T15:37:19.256Z,99559.66
2018-06-16T15:41:22.769Z,99555.53
2018-06-16T15:45:26.172Z,99556.48
2018-06-16T15:49:29.606Z,99546.77
2018-06-16T15:53:33.044Z,99554.88
2018-06-16T15:57:36.500Z,99546.38
2018-06-16T16:01:39.963Z,99548.72
2018-06-16T16:05:43.429Z,99546.30
2018-06-16T16:09:46.848Z,99542.75
2018-06-16T16:13:50.264Z,99537.35
2018-06-16T16:17:53.794Z,99541.00
2018-06-16T16:21:57.248Z,99538.20
2018-06-16T16:26:00.680Z,99540.91
2018-06-16T16:30:04.154Z,99543.91
2018-06-16T16:34:07.612Z,99545.03
2018-06-16T16:38:11.069Z,99543.09
2018-06-16T16:42:14.491Z,99541.19
2018-06-16T16:46:18.032Z,99542.11
2018-06-16T16:50:21.422Z,99544.13
2018-06-16T16:54:24.862Z,99541.33
2018-06-16T16:58:28.319Z,99541.13
2018-06-16T17:02:31.742Z,99537.08
2018-06-16T17:06:35.381Z,99540.73
2018-06-16T17:10:38.836Z,99546.03
2018-06-16T17:14:42.294Z,99542.41
2018-06-16T17:18:45.691Z,99538.27
2018-06-16T17:22:49.177Z,99539.05
2018-06-16T17:26:52.786Z,99538.26
2018-06-16T17:30:56.174Z,99541.35
2018-06-16T17:34:59.633Z,99539.25
2018-06-16T17:39:03.138Z,99544.08
2018-06-16T17:43:06.604Z,99546.11
2018-06-16T17:47:10.034Z,99540.05
2018-06-16T17:51:13.499Z,99543.80
2018-06-16T17:55:16.927Z,99539.09
2018-06-16T17:59:20.391Z,99540.36
2018-06-16T18:03:23.950Z,99543.94
2018-06-16T18:07:27.417Z,99547.50
2018-06-16T18:11:30.820Z,99549.93
2018-06-16T18:15:34.239Z,99549.72
2018-06-16T18:19:37.672Z,99551.47
2018-06-16T18:23:41.116Z,99564.55
2018-06-16T18:27:44.534Z,99560.51
2018-06-16T18:31:47.938Z,99559.28
2018-06-16T18:35:51.383Z,99564.86
2018-06-16T18:39:55.052Z,99563.70
2018-06-16T18:43:58.485Z,99569.25
2018-06-16T18:48:01.938Z,99569.16
2018-06-16T18:52:05.358Z,99574.92
2018-06-16T18:56:08.784Z,99579.86
2018-06-16T19:00:12.213Z,99588.80
2018-06-16T19:04:15.714Z,99590.14
2018-06-16T19:08:19.146Z,99587.72
2018-06-16T19:12:22.542Z,99596.84
2018-06-16T19:16:26.093Z,99600.30
2018-06-16T19:20:29.524Z,99610.20
2018-06-16T19:24:32.948Z,99615.48
2018-06-16T19:28:36.383Z,99617.95
2018-06-16T19:32:39.812Z,99625.84
2018-06-16T19:36:43.253Z,99624.44
2018-06-16T19:40:46.680Z,99631.52
2018-06-16T19:44:50.085Z,99628.89
2018-06-16T19:48:53.699Z,99633.07
2018-06-16T19:52:57.137Z,99632.58
2018-06-16T19:57:00.608Z,99639.56
2018-06-16T20:01:04.006Z,99631.66
2018-06-16T20:05:07.447Z,99640.39
2018-06-16T20:09:10.883Z,99641.13
2018-06-16T20:13:14.316Z,99637.91
2018-06-16T20:17:17.781Z,99634.53
2018-06-16T20:21:21.171Z,99643.33
2018-06-16T20:25:24.619Z,99642.39
2018-06-16T20:29:28.210Z,99643.78
2018-06-16T20:33:31.674Z,99644.83
2018-06-16T20:37:35.158Z,99655.40
2018-06-16T20:41:38.566Z,99656.84
2018-06-16T20:45:42.023Z,99666.64
2018-06-16T20:49:45.454Z,99666.50
2018-06-16T20:53:48.891Z,99672.92
2018-06-16T20:57:52.335Z,99674.91
2018-06-16T21:01:55.755Z,99668.88
2018-06-16T21:05:59.200Z,99669.73
2018-06-16T21:10:02.623Z,99676.61
2018-06-16T21:14:06.217Z,99680.71
2018-06-16T21:18:09.709Z,99674.55
2018-06-16T21:22:13.143Z,99667.05
2018-06-16T21:26:16.645Z,99672.58
2018-06-16T21:30:20.078Z,99671.01
2018-06-16T21:34:23.539Z,99675.75
2018-06-16T21:38:26.958Z,99675.89
2018-06-16T21:42:30.372Z,99681.48
2018-06-16T21:46:33.861Z,99678.09
2018-06-16T21:50:37.336Z,99679.99
2018-06-16T21:54:40.799Z,99673.61
2018-06-16T21:58:44.248Z,99673.34
2018-06-16T22:02:47.697Z,99679.41
2018-06-16T22:06:51.127Z,99674.30
2018-06-16T22:10:54.569Z,99675.45
2018-06-16T22:14:58.082Z,99676.96
2018-06-16T22:19:01.504Z,99673.98
2018-06-16T22:23:04.986Z,99678.15
2018-06-16T22:27:08.401Z,99677.50
2018-06-16T22:31:11.842Z,99676.06
2018-06-16T22:35:15.277Z,99671.39
2018-06-16T22:39:18.738Z,99677.80
2018-06-16T22:43:22.130Z,99678.00
2018-06-16T22:47:25.601Z,99677.69
2018-06-16T22:51:29.037Z,99677.91
2018-06-16T22:55:32.498Z,99670.41
2018-06-16T22:59:35.877Z,99673.64
2018-06-16T23:03:39.558Z,99676.05
2018-06-16T23:07:43.039Z,99673.13
2018-06-16T23:11:46.478Z,99669.72
2018-06-16T23:15:49.956Z,99677.59
2018-06-16T23:19:53.398Z,99679.06
2018-06-16T23:23:56.838Z,99675.31
2018-06-16T23:28:00.235Z,99672.31
2018-06-16T23:32:03.666Z,99666.61
2018-06-16T23:36:07.109Z,99673.31
2018-06-16T23:40:10.530Z,99668.12
2018-06-16T23:44:13.966Z,99662.45
2018-06-16T23:48:17.366Z,99667.56
2018-06-16T23:52:20.807Z,99668.11
2018-06-16T23:56:24.233Z,99661.06
